Time;durP1;ratioP1;P1;durP2;ratioP2;P2;SDS_P1;SDS_P2;PMS_P1;PMS_P2;Temp;Humidity;BMP_temperature;BMP_pressure;BME280_temperature;BME280_humidity;BME280_pressure;Samples;Min_cycle;Max_cycle;Signal;HPM_P1;HPM_P2
2021/01/18 00:00:21;;;;;;;48.35;25.65;;;;;;;2.05;93.01;101102.72;4902317;29;20060;-81
2021/01/18 00:02:48;;;;;;;49.08;24.80;;;;;;;2.09;93.30;101108.81;4915573;29;20119;-81
2021/01/18 00:05:14;;;;;;;44.42;24.15;;;;;;;2.13;92.94;101112.31;4919628;29;20357;-81
2021/01/18 00:07:48;;;;;;;46.28;25.08;;;;;;;2.16;92.81;101114.94;4920419;29;20147;-81
2021/01/18 00:10:17;;;;;;;45.00;24.55;;;;;;;2.13;93.02;101113.19;4921911;29;20054;-81
2021/01/18 00:12:49;;;;;;;49.55;25.23;;;;;;;2.12;92.67;101103.59;4925792;29;20048;-81
2021/01/18 00:15:17;;;;;;;44.55;23.50;;;;;;;2.12;92.42;101114.06;4921067;29;20134;-80
2021/01/18 00:17:45;;;;;;;44.60;23.75;;;;;;;2.14;92.67;101111.44;4903057;29;20159;-80
2021/01/18 00:20:16;;;;;;;38.90;22.52;;;;;;;2.20;92.81;101112.31;4918548;29;20052;-80
2021/01/18 00:22:44;;;;;;;42.47;23.25;;;;;;;2.23;92.71;101112.28;4916622;29;20056;-80
2021/01/18 00:25:17;;;;;;;42.60;23.67;;;;;;;2.27;91.78;101106.19;4918390;29;20068;-80
2021/01/18 00:27:44;;;;;;;40.78;22.02;;;;;;;2.28;92.28;101101.84;4924848;29;20580;-80
2021/01/18 00:30:12;;;;;;;46.10;23.75;;;;;;;2.23;92.53;101101.84;4913982;29;20072;-80
2021/01/18 00:32:40;;;;;;;43.58;23.30;;;;;;;2.21;92.63;101103.56;4911246;29;20058;-80
2021/01/18 00:35:11;;;;;;;40.83;22.23;;;;;;;2.23;92.52;101104.44;4897475;29;20130;-80
2021/01/18 00:37:44;;;;;;;47.50;23.20;;;;;;;2.28;92.95;101109.69;4918369;29;20190;-80
2021/01/18 00:40:13;;;;;;;41.85;22.83;;;;;;;2.29;92.51;101108.81;4921356;29;20062;-80
2021/01/18 00:42:43;;;;;;;39.15;22.35;;;;;;;2.29;92.09;101109.69;4929158;29;20032;-81
2021/01/18 00:45:12;;;;;;;43.33;23.20;;;;;;;2.29;92.34;101111.41;4917939;28;20028;-81
2021/01/18 00:47:42;;;;;;;45.42;22.77;;;;;;;2.33;92.33;101108.81;4924806;28;20063;-82
2021/01/18 00:50:12;;;;;;;45.75;23.60;;;;;;;2.32;92.34;101103.59;4921869;29;20052;-81
2021/01/18 00:52:40;;;;;;;41.60;22.23;;;;;;;2.36;92.38;101108.78;4924436;29;20054;-82
2021/01/18 00:55:10;;;;;;;43.33;22.23;;;;;;;2.39;91.86;101102.69;4920305;29;20111;-82
2021/01/18 00:57:37;;;;;;;39.80;21.95;;;;;;;2.39;91.66;101103.53;4899971;29;20084;-81
2021/01/18 01:00:08;;;;;;;37.85;21.10;;;;;;;2.37;91.98;101096.56;4912676;29;20101;-82
2021/01/18 01:02:42;;;;;;;41.95;22.02;;;;;;;2.38;92.19;101101.81;4914196;29;20066;-81
2021/01/18 01:05:12;;;;;;;42.78;21.52;;;;;;;2.36;92.13;101103.53;4916092;29;20048;-82
2021/01/18 01:07:46;;;;;;;39.40;21.83;;;;;;;2.37;91.56;101100.06;4926519;29;20062;-82
2021/01/18 01:10:16;;;;;;;40.35;21.30;;;;;;;2.34;91.41;101112.28;4917186;29;20048;-82
2021/01/18 01:12:43;;;;;;;38.42;22.40;;;;;;;2.30;91.81;101113.16;4901989;29;20070;-82
2021/01/18 01:15:11;;;;;;;46.80;24.17;;;;;;;2.26;91.90;101114.03;4935476;29;20051;-82
2021/01/18 01:17:44;;;;;;;44.05;22.20;;;;;;;2.20;92.57;101109.72;4926844;29;20060;-82
2021/01/18 01:20:13;;;;;;;41.35;23.63;;;;;;;2.20;92.80;101114.94;4924812;29;20048;-82
2021/01/18 01:22:40;;;;;;;46.50;22.55;;;;;;;2.18;92.74;101114.06;4923893;29;20056;-82
2021/01/18 01:25:11;;;;;;;41.22;22.27;;;;;;;2.20;93.24;101125.38;4907118;29;20111;-82
2021/01/18 01:27:40;;;;;;;44.70;22.33;;;;;;;2.24;92.81;101118.38;4935048;29;20488;-81
2021/01/18 01:30:08;;;;;;;43.03;21.75;;;;;;;2.27;93.21;101119.25;4923029;29;20166;-82
2021/01/18 01:32:39;;;;;;;41.75;20.73;;;;;;;2.30;93.48;101118.38;4916790;29;20088;-82
2021/01/18 01:35:07;;;;;;;42.15;21.27;;;;;;;2.34;93.14;101126.22;4932385;29;20130;-82
2021/01/18 01:37:36;;;;;;;38.42;20.30;;;;;;;2.42;93.30;101123.59;4927060;29;20513;-81
2021/01/18 01:40:09;;;;;;;36.30;19.15;;;;;;;2.47;93.38;101127.06;4921116;29;20252;-81
2021/01/18 01:42:36;;;;;;;35.72;19.42;;;;;;;2.44;93.24;101120.09;4924090;29;20060;-82
2021/01/18 01:45:04;;;;;;;34.13;18.80;;;;;;;2.47;92.83;101120.09;4923555;29;20060;-82
2021/01/18 01:47:40;;;;;;;34.05;18.83;;;;;;;2.52;93.47;101129.69;4931758;29;20056;-81
2021/01/18 01:50:19;;;;;;;33.05;16.85;;;;;;;2.56;93.00;101124.41;4928002;29;20048;-81
2021/01/18 01:52:52;;;;;;;28.90;17.27;;;;;;;2.58;93.29;101127.03;4908601;29;20127;-81
2021/01/18 01:55:36;;;;;;;25.40;14.77;;;;;;;2.60;93.61;101122.66;4921601;29;20048;-81
2021/01/18 01:58:05;;;;;;;27.45;14.75;;;;;;;2.66;93.07;101136.63;4909997;29;20060;-80
2021/01/18 02:00:36;;;;;;;25.38;14.65;;;;;;;2.69;93.03;101140.94;4919682;29;20044;-82
2021/01/18 02:03:17;;;;;;;27.48;14.52;;;;;;;2.64;92.78;101129.66;4920467;29;20062;-81
2021/01/18 02:05:44;;;;;;;24.05;13.48;;;;;;;2.83;92.10;101152.25;4920418;29;20120;-82
2021/01/18 02:08:11;;;;;;;27.02;14.35;;;;;;;2.83;92.33;101158.31;4921316;29;20619;-82
2021/01/18 02:10:38;;;;;;;25.50;14.38;;;;;;;2.90;91.13;101158.31;4918418;29;20055;-82
2021/01/18 02:13:33;;;;;;;24.52;14.77;;;;;;;2.86;91.29;101152.22;4915138;29;20147;-82
2021/01/18 02:16:00;;;;;;;23.98;14.57;;;;;;;2.86;91.38;101160.06;4899475;29;20111;-81
2021/01/18 02:18:35;;;;;;;25.08;14.95;;;;;;;2.84;90.92;101153.97;4918188;29;20056;-82
2021/01/18 02:21:23;;;;;;;27.23;14.90;;;;;;;2.80;90.95;101141.78;4915006;29;20151;-82
2021/01/18 02:24:08;;;;;;;26.42;15.10;;;;;;;2.75;91.78;101144.41;4920500;29;20055;-82
2021/01/18 02:26:59;;;;;;;25.98;14.93;;;;;;;2.74;91.66;101147.03;4921183;29;20048;-81
2021/01/18 02:29:44;;;;;;;;;;;;;;;2.72;91.47;101149.66;4932812;29;20063;-81
2021/01/18 02:32:29;;;;;;;27.55;13.82;;;;;;;2.79;92.14;101146.16;4920520;29;20002;-81
2021/01/18 02:35:02;;;;;;;24.35;12.68;;;;;;;2.78;91.85;101161.84;4920615;29;20080;-81
2021/01/18 02:37:34;;;;;;;24.80;13.60;;;;;;;2.76;91.35;101156.63;4925444;29;20052;-82
2021/01/18 02:40:10;;;;;;;24.65;13.50;;;;;;;2.76;91.59;101156.63;4926549;29;20054;-80
2021/01/18 02:42:52;;;;;;;29.00;14.90;;;;;;;2.77;91.60;101160.09;4929480;29;20040;-81
2021/01/18 02:45:22;;;;;;;25.13;12.90;;;;;;;2.79;91.66;101158.38;4911238;29;20051;-81
2021/01/18 02:47:48;;;;;;;24.73;14.13;;;;;;;2.80;92.16;101165.34;4927549;29;20047;-81
2021/01/18 02:50:18;;;;;;;21.95;13.65;;;;;;;2.77;92.00;101150.53;4928697;29;20040;-79
2021/01/18 02:52:45;;;;;;;26.20;14.25;;;;;;;2.79;92.25;101156.63;4925198;29;20179;-80
2021/01/18 02:55:13;;;;;;;25.05;14.00;;;;;;;2.84;91.46;101159.19;4924606;29;20401;-79
2021/01/18 02:57:40;;;;;;;26.92;14.32;;;;;;;2.84;92.03;101153.97;4923897;29;20044;-79
2021/01/18 03:00:15;;;;;;;22.35;13.02;;;;;;;2.85;91.44;101165.28;4917911;29;20051;-80
2021/01/18 03:02:53;;;;;;;24.33;13.60;;;;;;;2.91;91.95;101173.13;4903346;29;20075;-82
2021/01/18 03:06:01;;;;;;;21.98;11.90;;;;;;;2.89;91.86;101157.44;4930810;29;20048;-80
2021/01/18 03:08:33;;;;;;;20.95;11.73;;;;;;;2.89;92.26;101161.81;4927146;29;20051;-80
2021/01/18 03:11:07;;;;;;;23.50;11.90;;;;;;;2.88;92.43;101165.28;4916214;29;20055;-80
2021/01/18 03:13:44;;;;;;;20.10;11.00;;;;;;;2.87;92.67;101153.97;4922588;29;20457;-80
2021/01/18 03:16:15;;;;;;;17.67;10.65;;;;;;;2.92;92.43;101157.44;4904576;29;20052;-80
2021/01/18 03:18:44;;;;;;;21.10;11.07;;;;;;;3.01;92.36;101167.84;4901329;29;20048;-80
2021/01/18 03:21:12;;;;;;;18.13;10.50;;;;;;;3.04;92.08;101157.38;4907127;29;20055;-79
2021/01/18 03:23:40;;;;;;;16.52;10.50;;;;;;;3.07;92.08;101162.63;4922765;29;20112;-79
2021/01/18 03:26:07;;;;;;;16.83;10.25;;;;;;;3.01;91.87;101165.25;4926493;29;20143;-80
2021/01/18 03:28:33;;;;;;;20.02;11.10;;;;;;;2.97;92.15;101158.31;4926625;29;20051;-78
2021/01/18 03:30:59;;;;;;;18.77;10.80;;;;;;;2.99;92.25;101164.38;4924485;29;20067;-79
2021/01/18 03:33:26;;;;;;;17.80;10.65;;;;;;;3.00;92.22;101162.63;4922079;29;20059;-79
2021/01/18 03:35:53;;;;;;;19.98;10.95;;;;;;;2.98;92.00;101167.03;4933726;29;20052;-79
2021/01/18 03:38:21;;;;;;;19.40;11.18;;;;;;;2.94;92.35;101163.53;4926425;29;20091;-80
2021/01/18 03:40:49;;;;;;;18.52;10.13;;;;;;;2.95;92.38;101170.50;4923555;29;20129;-80
2021/01/18 03:43:17;;;;;;;19.95;10.93;;;;;;;2.93;92.21;101161.81;4908960;29;20044;-80
2021/01/18 03:45:44;;;;;;;17.40;10.65;;;;;;;2.96;92.52;101163.53;4907755;29;20067;-81
2021/01/18 03:48:12;;;;;;;17.42;11.07;;;;;;;2.94;92.09;101168.78;4921910;29;20127;-81
2021/01/18 03:50:42;;;;;;;22.13;10.95;;;;;;;2.96;92.63;101168.78;4924892;29;20058;-80
2021/01/18 03:53:09;;;;;;;19.73;11.43;;;;;;;2.93;93.01;101168.78;4927540;29;20104;-80
2021/01/18 03:55:36;;;;;;;18.83;11.02;;;;;;;2.97;92.17;101173.13;4931310;29;20052;-79
2021/01/18 03:58:03;;;;;;;23.00;11.80;;;;;;;2.95;92.20;101169.66;4926258;29;20119;-79
2021/01/18 04:00:32;;;;;;;20.23;12.02;;;;;;;2.99;92.17;101174.84;4924305;29;20120;-79
2021/01/18 04:02:59;;;;;;;19.45;11.00;;;;;;;2.98;92.21;101169.63;4925778;29;20056;-82
2021/01/18 04:05:26;;;;;;;18.80;11.80;;;;;;;2.97;92.64;101160.06;4926243;29;20062;-79
2021/01/18 04:07:54;;;;;;;20.30;11.68;;;;;;;2.92;92.37;101162.66;4923413;29;20052;-79
2021/01/18 04:10:23;;;;;;;19.23;10.70;;;;;;;2.89;92.12;101160.06;4930332;29;20128;-79
2021/01/18 04:12:51;;;;;;;18.30;11.32;;;;;;;2.89;92.40;101154.81;4927954;29;20116;-80
2021/01/18 04:15:20;;;;;;;19.00;11.15;;;;;;;2.95;92.94;101160.06;4924411;29;20076;-82
2021/01/18 04:17:52;;;;;;;20.17;11.63;;;;;;;3.01;92.18;101166.97;4924104;29;20406;-82
2021/01/18 04:20:19;;;;;;;19.38;11.05;;;;;;;3.01;91.83;101166.97;4930311;29;20189;-81
2021/01/18 04:22:47;;;;;;;17.42;10.65;;;;;;;3.03;91.96;101170.47;4933637;29;20059;-81
2021/01/18 04:25:15;;;;;;;19.67;10.90;;;;;;;3.03;91.85;101160.88;4932869;29;20116;-82
2021/01/18 04:27:47;;;;;;;17.02;10.85;;;;;;;3.05;91.75;101159.13;4930648;29;20168;-81
2021/01/18 04:30:17;;;;;;;17.73;10.23;;;;;;;3.07;91.34;101159.13;4917878;29;20454;-81
2021/01/18 04:32:56;;;;;;;15.65;9.20;;;;;;;3.10;91.68;101157.38;4902347;29;20060;-81
2021/01/18 04:35:24;;;;;;;15.20;10.17;;;;;;;3.11;91.50;101153.88;4916547;29;20540;-81
2021/01/18 04:37:51;;;;;;;17.70;10.50;;;;;;;3.11;91.12;101159.13;4903341;29;20052;-81
2021/01/18 04:40:20;;;;;;;17.90;9.57;;;;;;;3.12;91.73;101160.84;4922552;29;20049;-81
2021/01/18 04:42:47;;;;;;;15.07;9.23;;;;;;;3.14;90.64;101166.97;4934377;29;20028;-82
2021/01/18 04:45:19;;;;;;;17.15;9.07;;;;;;;3.13;90.90;101154.75;4935683;29;20062;-82
2021/01/18 04:47:48;;;;;;;17.13;9.32;;;;;;;3.19;90.71;101166.91;4920015;29;20047;-82
2021/01/18 04:50:19;;;;;;;17.80;9.15;;;;;;;3.23;90.48;101167.78;4939346;29;20064;-81
2021/01/18 04:52:46;;;;;;;15.05;8.45;;;;;;;3.27;90.16;101172.13;4930051;29;20492;-81
2021/01/18 04:55:28;;;;;;;15.60;8.82;;;;;;;3.29;89.89;101160.78;4930365;29;20234;-82
2021/01/18 04:58:06;;;;;;;16.80;8.20;;;;;;;3.34;89.19;101166.84;4934391;29;20072;-82
2021/01/18 05:00:46;;;;;;;15.27;8.10;;;;;;;3.47;88.10;101175.50;4937557;29;20108;-81
2021/01/18 05:03:20;;;;;;;;;;;;;;;3.45;88.22;101172.91;4933357;29;20056;-81
2021/01/18 05:05:57;;;;;;;13.25;7.93;;;;;;;3.42;88.11;101170.31;4927714;29;19927;-81
2021/01/18 05:08:44;;;;;;;17.35;8.85;;;;;;;3.42;87.71;101170.31;4925218;29;20091;-81
2021/01/18 05:11:14;;;;;;;16.35;9.23;;;;;;;3.36;87.64;101169.44;4927131;29;20052;-81
2021/01/18 05:13:41;;;;;;;15.32;8.98;;;;;;;3.32;87.69;101175.56;4922126;29;20059;-81
2021/01/18 05:16:08;;;;;;;16.95;9.38;;;;;;;3.30;88.29;101180.84;4937341;29;20050;-81
2021/01/18 05:18:37;;;;;;;15.30;8.43;;;;;;;3.32;87.94;101180.81;4935213;29;20044;-81
2021/01/18 05:21:08;;;;;;;16.52;9.70;;;;;;;3.34;88.46;101179.94;4942946;29;20050;-81
2021/01/18 05:23:43;;;;;;;13.90;9.07;;;;;;;3.28;88.29;101173.88;4918920;29;20055;-81
2021/01/18 05:26:15;;;;;;;17.15;9.10;;;;;;;3.28;88.29;101179.09;4917472;29;20418;-82
2021/01/18 05:28:49;;;;;;;15.55;8.70;;;;;;;3.25;89.20;101172.13;4904384;29;20096;-81
2021/01/18 05:31:30;;;;;;;16.83;8.82;;;;;;;3.28;88.57;101176.50;4900057;29;20131;-81
2021/01/18 05:33:57;;;;;;;15.07;8.35;;;;;;;3.29;88.13;101173.88;4925626;29;20051;-82
2021/01/18 05:36:47;;;;;;;15.70;8.80;;;;;;;3.32;88.81;101175.56;4923326;29;20063;-82
2021/01/18 05:39:24;;;;;;;16.27;8.75;;;;;;;3.34;88.47;101177.31;4909050;29;20060;-81
2021/01/18 05:41:52;;;;;;;13.02;8.38;;;;;;;3.33;88.42;101185.16;4915931;29;20062;-81
2021/01/18 05:44:20;;;;;;;18.20;9.35;;;;;;;3.31;88.52;101186.91;4929204;29;20057;-82
2021/01/18 05:46:50;;;;;;;17.83;9.73;;;;;;;3.29;88.33;101186.97;4920352;29;20073;-81
2021/01/18 05:49:18;;;;;;;17.67;9.77;;;;;;;3.25;88.99;101182.59;4921620;29;20092;-83
2021/01/18 05:51:50;;;;;;;;;;;;;;;3.25;88.13;101192.19;4925382;29;20076;-82
2021/01/18 05:54:23;;;;;;;19.45;9.43;;;;;;;3.22;88.49;101197.44;4926599;29;19922;-81
2021/01/18 05:56:51;;;;;;;;;;;;;;;3.21;89.41;101200.94;4907378;29;20056;-81
2021/01/18 05:59:20;;;;;;;16.02;9.32;;;;;;;3.13;88.91;101188.78;4922543;29;19923;-81
2021/01/18 06:01:48;;;;;;;18.15;9.70;;;;;;;3.15;89.45;101207.91;4934186;29;20040;-81
2021/01/18 06:04:20;;;;;;;17.63;9.90;;;;;;;3.15;89.24;101202.69;4911222;29;20044;-81
2021/01/18 06:06:57;;;;;;;15.38;9.27;;;;;;;3.18;88.68;101209.66;4913823;29;20465;-81
2021/01/18 06:09:42;;;;;;;13.63;8.95;;;;;;;3.22;88.49;101207.91;4916691;29;20062;-82
2021/01/18 06:12:33;;;;;;;14.50;8.85;;;;;;;3.18;88.29;101207.91;4917623;29;20044;-82
2021/01/18 06:15:03;;;;;;;16.65;8.80;;;;;;;3.16;88.71;101217.50;4919436;29;20064;-82
2021/01/18 06:17:31;;;;;;;16.63;8.43;;;;;;;3.12;88.22;101207.97;4921746;29;20060;-82
2021/01/18 06:20:01;;;;;;;12.82;8.70;;;;;;;3.12;nan;101207.09;4926214;29;20052;-82
2021/01/18 06:22:28;;;;;;;15.37;8.03;;;;;;;3.11;88.17;101208.84;4926040;29;20176;-82
2021/01/18 06:25:11;;;;;;;14.07;8.20;;;;;;;3.13;87.58;101207.09;4925842;29;20052;-82
2021/01/18 06:27:37;;;;;;;15.45;7.20;;;;;;;3.13;87.54;101206.22;4927852;29;20112;-80
2021/01/18 06:30:04;;;;;;;16.27;7.65;;;;;;;3.17;88.02;101207.91;4922520;29;20056;-82
2021/01/18 06:32:32;;;;;;;10.90;6.90;;;;;;;3.20;87.24;101213.16;4923951;29;20052;-82
2021/01/18 06:35:01;;;;;;;13.48;6.95;;;;;;;3.17;87.21;101210.53;4943030;29;20058;-80
2021/01/18 06:37:32;;;;;;;13.00;6.70;;;;;;;3.20;86.48;101221.00;4929172;29;20059;-80
2021/01/18 06:40:05;;;;;;;10.60;6.60;;;;;;;3.22;86.53;101231.47;4914515;29;20099;-80
2021/01/18 06:42:32;;;;;;;15.65;6.60;;;;;;;3.24;85.13;101222.75;4910757;29;20052;-81
2021/01/18 06:44:59;;;;;;;11.38;6.25;;;;;;;3.24;85.16;101224.47;4904293;29;20044;-79
2021/01/18 06:47:29;;;;;;;13.43;6.13;;;;;;;3.26;84.61;101236.69;4919428;29;20056;-82
2021/01/18 06:50:04;;;;;;;16.05;6.43;;;;;;;3.27;84.73;101229.72;4923254;29;20048;-83
2021/01/18 06:52:32;;;;;;;10.50;6.80;;;;;;;3.19;84.77;101221.88;4922289;29;20043;-79
2021/01/18 06:55:06;;;;;;;13.88;6.60;;;;;;;3.18;85.07;101226.25;4920029;29;20599;-80
2021/01/18 06:57:51;;;;;;;18.15;6.93;;;;;;;3.15;85.11;101228.84;4911130;29;20090;-82
2021/01/18 07:00:18;;;;;;;13.20;7.07;;;;;;;3.18;85.05;101235.84;4924537;29;20435;-79
2021/01/18 07:02:59;;;;;;;14.82;6.65;;;;;;;3.16;85.36;101229.72;4924202;29;20056;-82
2021/01/18 07:05:46;;;;;;;15.60;6.95;;;;;;;3.22;84.35;101247.16;4923991;29;20048;-80
2021/01/18 07:08:15;;;;;;;14.40;6.32;;;;;;;3.20;84.17;101241.06;4916810;29;20078;-80
2021/01/18 07:10:50;;;;;;;14.13;6.85;;;;;;;3.11;85.01;101241.97;4926508;29;20055;-80
2021/01/18 07:13:20;;;;;;;10.35;6.28;;;;;;;3.14;85.49;101252.44;4908660;29;20044;-79
2021/01/18 07:15:48;;;;;;;11.00;6.00;;;;;;;3.14;84.55;101252.44;4905830;29;20112;-80
2021/01/18 07:18:15;;;;;;;13.55;6.38;;;;;;;3.08;84.52;101255.94;4928418;29;20048;-80
2021/01/18 07:20:45;;;;;;;12.25;6.22;;;;;;;3.11;85.19;101268.16;4920586;29;20047;-81
2021/01/18 07:23:32;;;;;;;12.63;6.18;;;;;;;3.14;85.02;101261.16;4925578;29;20063;-81
2021/01/18 07:26:30;;;;;;;13.52;6.43;;;;;;;3.14;84.54;101263.78;4923672;29;20258;-82
2021/01/18 07:29:02;;;;;;;14.20;5.82;;;;;;;3.18;83.61;101265.50;4922046;29;20128;-82
2021/01/18 07:31:29;;;;;;;15.07;6.30;;;;;;;3.15;84.44;101256.78;4898995;29;20128;-80
2021/01/18 07:33:57;;;;;;;10.43;6.10;;;;;;;3.11;84.53;101262.91;4906131;29;20102;-80
2021/01/18 07:36:28;;;;;;;12.38;6.13;;;;;;;3.11;84.69;101266.41;4923377;29;20127;-80
2021/01/18 07:38:55;;;;;;;15.63;6.07;;;;;;;3.12;84.38;101268.16;4926333;29;20070;-83
2021/01/18 07:41:33;;;;;;;12.77;5.80;;;;;;;3.21;84.24;101261.13;4930666;29;20104;-79
2021/01/18 07:43:59;;;;;;;12.75;6.03;;;;;;;3.21;83.88;101268.97;4909813;29;20059;-80
2021/01/18 07:46:28;;;;;;;12.60;5.65;;;;;;;3.25;83.67;101265.50;4911656;29;20064;-81
2021/01/18 07:49:23;;;;;;;13.07;5.53;;;;;;;3.27;83.75;101263.75;4923419;29;20112;-81
2021/01/18 07:51:50;;;;;;;12.68;5.60;;;;;;;3.33;83.72;101261.94;4922519;29;20050;-80
2021/01/18 07:54:32;;;;;;;15.25;6.40;;;;;;;3.42;83.21;101266.31;4926483;29;20058;-80
2021/01/18 07:57:31;;;;;;;14.63;5.93;;;;;;;3.44;82.81;101278.53;4921153;29;20067;-80
2021/01/18 08:00:19;;;;;;;11.98;6.38;;;;;;;3.44;82.71;101277.66;4922135;29;20048;-80
2021/01/18 08:02:50;;;;;;;12.88;6.15;;;;;;;3.46;82.55;101270.66;4922155;29;20058;-82
2021/01/18 08:05:20;;;;;;;10.93;5.47;;;;;;;3.47;83.00;101269.75;4889253;29;20481;-82
2021/01/18 08:08:14;;;;;;;11.98;5.72;;;;;;;3.53;82.10;101273.22;4929115;29;20083;-83
2021/01/18 08:11:04;;;;;;;16.55;6.00;;;;;;;3.55;81.86;101273.22;4925250;29;20079;-83
2021/01/18 08:13:50;;;;;;;10.55;5.20;;;;;;;3.56;82.15;101267.13;4929178;29;20108;-81
2021/01/18 08:16:35;;;;;;;10.65;5.95;;;;;;;3.51;82.14;101269.75;4928571;29;20052;-80
2021/01/18 08:19:15;;;;;;;12.40;5.03;;;;;;;3.51;81.75;101268.88;4937380;29;20059;-80
2021/01/18 08:21:45;;;;;;;12.85;5.47;;;;;;;3.50;82.12;101268.00;4930508;29;20108;-81
2021/01/18 08:24:30;;;;;;;11.10;5.88;;;;;;;3.54;81.96;101268.88;4910946;29;20051;-81
2021/01/18 08:27:09;;;;;;;11.23;5.13;;;;;;;3.58;81.49;101269.72;4929221;29;20075;-81
2021/01/18 08:29:48;;;;;;;12.27;5.63;;;;;;;3.59;82.05;101268.84;4905086;29;20162;-81
2021/01/18 08:32:24;;;;;;;12.85;5.70;;;;;;;3.61;81.93;101272.34;4926094;29;20083;-81
2021/01/18 08:35:04;;;;;;;15.05;5.85;;;;;;;3.69;81.57;101281.00;4924215;29;20054;-81
2021/01/18 08:37:36;;;;;;;7.85;4.68;;;;;;;3.66;81.58;101279.28;4928285;29;20454;-80
2021/01/18 08:40:12;;;;;;;9.70;4.82;;;;;;;3.60;81.14;101274.09;4930050;29;20129;-80
2021/01/18 08:42:42;;;;;;;11.35;4.55;;;;;;;3.59;80.67;101271.47;4933517;29;20044;-80
2021/01/18 08:45:25;;;;;;;12.52;5.25;;;;;;;3.54;81.43;101284.56;4915796;29;20191;-80
2021/01/18 08:47:55;;;;;;;9.35;4.53;;;;;;;3.53;81.43;101275.84;4917382;29;20421;-81
2021/01/18 08:50:30;;;;;;;14.82;5.13;;;;;;;3.47;81.51;101269.75;4923551;29;20420;-81
2021/01/18 08:53:01;;;;;;;10.48;4.72;;;;;;;3.51;81.55;101284.59;4927043;29;20104;-80
2021/01/18 08:55:31;;;;;;;10.40;4.95;;;;;;;3.52;81.57;101276.72;4924932;29;20080;-80
2021/01/18 08:58:03;;;;;;;11.18;4.63;;;;;;;3.57;81.62;101275.84;4921707;29;20056;-80
2021/01/18 09:00:45;;;;;;;14.30;4.88;;;;;;;3.57;81.31;101274.09;4924799;29;20040;-81
2021/01/18 09:03:19;;;;;;;12.13;4.97;;;;;;;3.63;80.79;101279.28;4924216;29;20467;-80
2021/01/18 09:05:47;;;;;;;13.10;5.10;;;;;;;3.64;81.15;101278.41;4907469;29;20512;-81
2021/01/18 09:08:20;;;;;;;11.30;5.03;;;;;;;3.65;81.13;101282.78;4926065;29;20076;-82
2021/01/18 09:10:55;;;;;;;11.05;5.20;;;;;;;3.67;81.54;101277.53;4930669;29;20048;-81
2021/01/18 09:13:24;;;;;;;11.00;5.15;;;;;;;3.62;80.87;101261.81;4931930;29;20047;-80
2021/01/18 09:15:53;;;;;;;14.27;5.40;;;;;;;3.73;80.01;101277.50;4929297;29;20051;-82
2021/01/18 09:18:22;;;;;;;12.75;5.57;;;;;;;3.72;80.49;101279.25;4927518;29;20055;-81
2021/01/18 09:20:56;;;;;;;11.70;5.35;;;;;;;3.69;81.07;101274.03;4937815;29;20099;-80
2021/01/18 09:23:28;;;;;;;13.80;5.35;;;;;;;3.73;80.71;101278.38;4920870;29;20048;-80
2021/01/18 09:26:01;;;;;;;14.15;5.30;;;;;;;3.79;80.28;101275.72;4933387;29;20052;-81
2021/01/18 09:28:28;;;;;;;11.00;5.07;;;;;;;3.87;79.29;101278.31;4935212;29;20126;-80
2021/01/18 09:30:55;;;;;;;10.30;4.90;;;;;;;3.91;79.58;101268.69;4931538;29;20071;-82
2021/01/18 09:33:27;;;;;;;9.95;5.50;;;;;;;3.95;79.57;101275.63;4931725;29;20052;-81
2021/01/18 09:35:54;;;;;;;12.25;6.10;;;;;;;3.96;80.07;101272.13;4923070;29;20068;-82
2021/01/18 09:38:20;;;;;;;19.77;7.60;;;;;;;3.97;79.96;101279.13;4928586;29;20052;-80
2021/01/18 09:40:47;;;;;;;14.90;6.88;;;;;;;3.99;80.07;101282.59;4910599;29;20063;-81
2021/01/18 09:43:19;;;;;;;10.75;6.18;;;;;;;4.05;79.27;101287.81;4925732;29;20163;-81
2021/01/18 09:45:54;;;;;;;14.20;6.05;;;;;;;4.03;80.21;101284.31;4913249;29;20073;-81
2021/01/18 09:48:25;;;;;;;20.77;7.15;;;;;;;4.33;83.82;101296.38;4929832;29;20056;-82
2021/01/18 09:51:07;;;;;;;14.95;5.72;;;;;;;4.49;79.51;101291.00;4935872;29;20056;-81
2021/01/18 09:53:37;;;;;;;14.35;6.65;;;;;;;4.39;78.15;101294.59;4922034;29;20056;-82
2021/01/18 09:56:12;;;;;;;16.92;6.60;;;;;;;4.33;79.45;101298.97;4927387;29;20044;-81
2021/01/18 09:58:45;;;;;;;14.13;6.35;;;;;;;4.27;78.58;101306.88;4962832;23;20063;-81
2021/01/18 10:01:14;;;;;;;11.40;6.53;;;;;;;4.18;78.78;101303.44;4941275;29;20035;-81
2021/01/18 10:03:42;;;;;;;14.90;6.77;;;;;;;4.19;78.98;101306.94;4961062;28;20111;-82
2021/01/18 10:06:22;;;;;;;13.10;6.30;;;;;;;4.29;79.64;101302.50;4946893;29;20047;-80
2021/01/18 10:08:51;;;;;;;11.32;6.25;;;;;;;4.34;78.99;101303.34;4955377;28;20042;-83
2021/01/18 10:11:43;;;;;;;15.75;7.15;;;;;;;4.46;79.33;101295.38;4956033;29;20147;-82
2021/01/18 10:14:20;;;;;;;18.85;7.53;;;;;;;4.57;78.14;101304.91;4964320;28;20082;-82
2021/01/18 10:17:09;;;;;;;12.80;7.28;;;;;;;4.61;77.96;101300.50;4955914;28;20071;-83
2021/01/18 10:19:39;;;;;;;20.38;7.32;;;;;;;4.64;77.60;101282.13;4952642;28;20111;-81
2021/01/18 10:22:23;;;;;;;13.43;7.13;;;;;;;4.68;77.02;101281.22;4953214;28;20055;-80
2021/01/18 10:24:59;;;;;;;14.23;7.10;;;;;;;4.83;80.23;101286.34;4940582;29;20044;-82
2021/01/18 10:27:28;;;;;;;15.35;7.45;;;;;;;5.14;78.35;101281.66;4947449;29;20059;-80
2021/01/18 10:30:15;;;;;;;13.25;7.53;;;;;;;5.48;77.07;101281.28;4957575;28;20047;-81
2021/01/18 10:32:58;;;;;;;14.00;7.00;;;;;;;5.44;74.83;101285.69;4954204;29;20059;-81
2021/01/18 10:35:32;;;;;;;13.00;7.60;;;;;;;5.22;75.41;101279.78;4965073;29;20052;-81
2021/01/18 10:38:36;;;;;;;13.45;7.43;;;;;;;5.23;76.73;101281.53;4950383;29;20055;-81
2021/01/18 10:41:12;;;;;;;17.88;10.35;;;;;;;5.34;76.17;101275.31;4918595;29;20067;-80
2021/01/18 10:43:51;;;;;;;12.40;7.82;;;;;;;5.41;75.75;101275.22;4935402;29;20031;-82
2021/01/18 10:46:20;;;;;;;13.98;7.43;;;;;;;5.46;74.34;101280.41;4937546;29;20051;-81
2021/01/18 10:49:58;;;;;;;18.05;9.57;;;;;;;5.35;75.38;101262.16;4959582;29;20058;-82
2021/01/18 10:52:42;;;;;;;16.08;7.93;;;;;;;5.34;74.55;101260.44;4954876;29;20111;-79
2021/01/18 10:55:13;;;;;;;15.07;8.25;;;;;;;5.30;75.13;101261.34;4949164;29;20055;-80
2021/01/18 10:58:06;;;;;;;16.40;7.53;;;;;;;5.33;75.58;101277.06;4926834;29;20063;-80
2021/01/18 11:00:37;;;;;;;15.90;8.32;;;;;;;5.28;76.11;101265.72;4941892;29;20385;-81
2021/01/18 11:03:04;;;;;;;15.40;8.02;;;;;;;5.21;76.58;101264.06;4933105;29;20139;-80
2021/01/18 11:05:40;;;;;;;14.52;8.35;;;;;;;5.21;77.25;101272.78;4951132;29;20059;-80
2021/01/18 11:08:10;;;;;;;18.17;9.38;;;;;;;5.14;77.08;101265.91;4958669;29;20071;-80
2021/01/18 11:10:49;;;;;;;13.82;6.57;;;;;;;5.10;76.95;101261.56;4945364;29;20124;-81
2021/01/18 11:13:25;;;;;;;16.38;8.60;;;;;;;5.06;76.75;101262.47;4958025;29;20056;-81
2021/01/18 11:15:52;;;;;;;15.27;8.30;;;;;;;5.09;77.00;101257.19;4930763;29;20111;-81
2021/01/18 11:18:22;;;;;;;14.63;8.70;;;;;;;5.05;76.92;101254.59;4943614;29;20094;-81
2021/01/18 11:20:53;;;;;;;16.60;8.30;;;;;;;5.01;77.45;101250.28;4949395;29;20061;-81
2021/01/18 11:23:20;;;;;;;15.20;8.57;;;;;;;5.05;77.54;101257.22;4950791;29;20177;-81
2021/01/18 11:25:46;;;;;;;20.15;8.73;;;;;;;5.05;77.60;101258.09;4939752;29;20043;-81
2021/01/18 11:28:15;;;;;;;20.23;9.45;;;;;;;5.00;77.33;101244.19;4942491;29;20127;-81
2021/01/18 11:30:43;;;;;;;19.77;9.23;;;;;;;4.96;78.23;101250.34;4939929;29;20083;-80
2021/01/18 11:33:10;;;;;;;18.10;9.35;;;;;;;4.94;77.96;101258.22;4939853;29;20116;-80
2021/01/18 11:35:43;;;;;;;18.83;9.02;;;;;;;4.90;77.34;101246.00;4951290;29;20047;-81
2021/01/18 11:38:11;;;;;;;15.80;10.02;;;;;;;4.82;77.76;101242.59;4951677;29;20054;-83
2021/01/18 11:40:38;;;;;;;17.95;9.10;;;;;;;4.84;77.87;101243.47;4929615;29;20063;-81
2021/01/18 11:43:05;;;;;;;16.25;9.40;;;;;;;4.93;77.44;101234.63;4924112;29;20043;-81
2021/01/18 11:45:32;;;;;;;16.02;9.45;;;;;;;5.00;76.71;101232.81;4953565;29;20048;-82
2021/01/18 11:47:59;;;;;;;14.23;8.93;;;;;;;5.04;77.63;101237.09;4951455;29;20532;-81
2021/01/18 11:50:25;;;;;;;16.88;9.27;;;;;;;5.24;77.08;101241.25;4922031;29;20056;-81